Time;durP1;ratioP1;P1;durP2;ratioP2;P2;SDS_P1;SDS_P2;PMS_P1;PMS_P2;Temp;Humidity;BMP_temperature;BMP_pressure;BME280_temperature;BME280_humidity;BME280_pressure;Samples;Min_cycle;Max_cycle;Signal;HPM_P1;HPM_P2
2021/07/12 00:01:08;;;;;;;;;;;;;;;18.72;80.97;101417.75;5113575;28;20010;-73
2021/07/12 00:03:35;;;;;;;;;;;;;;;18.77;80.51;101415.63;5113779;28;20370;-72
2021/07/12 00:06:01;;;;;;;;;;;;;;;18.78;80.56;101417.34;5113471;28;20366;-72
2021/07/12 00:08:28;;;;;;;;;;;;;;;18.81;80.70;101422.34;5114077;28;19950;-72
2021/07/12 00:10:55;;;;;;;;;;;;;;;18.77;80.73;101420.06;5113908;28;19924;-72
2021/07/12 00:13:23;;;;;;;;;;;;;;;18.85;80.33;101425.56;5113665;28;19930;-72
2021/07/12 00:15:49;;;;;;;;;;;;;;;18.79;80.76;101419.00;5113609;28;19930;-72
2021/07/12 00:18:16;;;;;;;;;;;;;;;18.75;80.78;101416.69;5113686;28;20355;-72
2021/07/12 00:20:42;;;;;;;;;;;;;;;18.70;81.29;101414.41;5113850;28;19924;-72
2021/07/12 00:23:09;;;;;;;;;;;;;;;18.76;81.42;101416.59;5113462;28;19924;-72
2021/07/12 00:25:36;;;;;;;;;;;;;;;18.79;81.20;101407.63;5113319;28;19930;-72
2021/07/12 00:28:03;;;;;;;;;;;;;;;18.76;81.75;101413.97;5113462;28;19927;-72
2021/07/12 00:30:31;;;;;;;;;;;;;;;18.65;81.47;101414.78;5113667;28;19923;-72
2021/07/12 00:32:58;;;;;;;;;;;;;;;18.71;81.12;101410.81;5113005;28;19931;-72
2021/07/12 00:35:25;;;;;;;;;;;;;;;18.68;82.21;101425.09;5113249;28;20333;-73
2021/07/12 00:37:52;;;;;;;;;;;;;;;18.65;81.73;101420.06;5113590;28;19924;-72
2021/07/12 00:40:19;;;;;;;;;;;;;;;18.43;82.42;101415.63;5112968;28;19928;-72
2021/07/12 00:42:47;;;;;;;;;;;;;;;18.59;82.31;101417.06;5113486;28;19931;-72
2021/07/12 00:45:15;;;;;;;;;;;;;;;18.58;82.34;101424.13;5112776;28;20382;-72
2021/07/12 00:47:43;;;;;;;;;;;;;;;18.57;82.58;101417.16;5113341;28;19924;-72
2021/07/12 00:50:10;;;;;;;;;;;;;;;18.61;82.41;101423.06;5113147;28;19930;-72
2021/07/12 00:52:37;;;;;;;;;;;;;;;18.58;82.45;101412.75;5113340;28;19931;-72
2021/07/12 00:55:13;;;;;;;;;;;;;;;18.61;82.80;101420.41;5112654;28;19923;-72
2021/07/12 00:57:39;;;;;;;;;;;;;;;18.69;83.19;101423.28;5112642;28;20018;-72
2021/07/12 01:00:07;;;;;;;;;;;;;;;18.63;82.74;101423.78;5112970;28;19928;-72
2021/07/12 01:02:33;;;;;;;;;;;;;;;18.64;82.99;101426.28;5113080;28;19931;-72
2021/07/12 01:05:02;;;;;;;;;;;;;;;18.65;82.77;101425.34;5112652;28;20370;-72
2021/07/12 01:07:28;;;;;;;;;;;;;;;18.60;82.89;101424.00;5113251;28;19923;-72
2021/07/12 01:09:55;;;;;;;;;;;;;;;18.61;83.36;101425.69;5112785;28;19924;-72
2021/07/12 01:12:27;;;;;;;;;;;;;;;18.57;82.83;101417.16;5112767;28;19924;-72
2021/07/12 01:14:57;;;;;;;;;;;;;;;18.59;83.14;101423.16;5112843;28;19931;-72
2021/07/12 01:17:27;;;;;;;;;;;;;;;18.57;83.23;101419.81;5113104;28;19928;-72
2021/07/12 01:20:11;;;;;;;;;;;;;;;18.56;83.15;101426.03;5113077;28;19924;-72
2021/07/12 01:22:51;;;;;;;;;;;;;;;18.52;82.95;101429.88;5099042;28;19930;-72
2021/07/12 01:25:49;;;;;;;;;;;;;;;18.49;83.07;101425.66;5112548;28;19927;-72
2021/07/12 01:28:32;;;;;;;;;;;;;;;18.50;82.85;101424.72;5112471;28;19924;-72
2021/07/12 01:31:14;;;;;;;;;;;;;;;18.47;82.64;101426.75;5112340;28;20382;-72
2021/07/12 01:33:47;;;;;;;;;;;;;;;18.49;81.98;101423.03;5112650;28;20314;-72
2021/07/12 01:36:15;;;;;;;;;;;;;;;18.52;81.78;101421.13;5112730;28;19923;-73
2021/07/12 01:38:51;;;;;;;;;;;;;;;18.59;81.18;101427.59;5112476;28;20266;-72
2021/07/12 01:41:21;;;;;;;;;;;;;;;18.56;80.82;101430.47;5112534;28;19927;-72
2021/07/12 01:43:52;;;;;;;;;;;;;;;18.54;81.34;101425.31;5112546;28;19997;-72
2021/07/12 01:46:23;;;;;;;;;;;;;;;18.49;81.61;101425.66;5112120;28;19927;-72
2021/07/12 01:48:58;;;;;;;;;;;;;;;18.49;81.25;101432.75;5112510;28;19924;-72
2021/07/12 01:51:28;;;;;;;;;;;;;;;18.48;80.31;101425.81;5112591;28;19923;-72
2021/07/12 01:53:58;;;;;;;;;;;;;;;18.50;80.59;101423.91;5112680;28;19923;-73
2021/07/12 01:56:29;;;;;;;;;;;;;;;18.42;79.23;101429.75;5112240;28;20267;-73
2021/07/12 01:59:00;;;;;;;;;;;;;;;18.46;79.88;101433.81;5112697;28;19946;-72
2021/07/12 02:01:27;;;;;;;;;;;;;;;18.40;80.23;101430.84;5112509;28;19931;-72
2021/07/12 02:03:56;;;;;;;;;;;;;;;18.42;79.32;101435.03;5112655;28;19923;-72
2021/07/12 02:06:24;;;;;;;;;;;;;;;18.45;79.70;101441.84;5112545;28;19923;-72
2021/07/12 02:08:51;;;;;;;;;;;;;;;18.44;79.18;101430.47;5112692;28;19923;-72
2021/07/12 02:11:18;;;;;;;;;;;;;;;18.43;79.21;101430.59;5116104;28;19923;-72
2021/07/12 02:13:46;;;;;;;;;;;;;;;18.44;79.62;101432.25;5116315;28;19931;-72
2021/07/12 02:16:13;;;;;;;;;;;;;;;18.43;79.53;101426.16;5115915;28;19924;-72
2021/07/12 02:18:40;;;;;;;;;;;;;;;18.48;79.81;101441.63;5115906;28;19934;-72
2021/07/12 02:21:09;;;;;;;;;;;;;;;18.45;78.98;101437.41;5115525;28;19924;-72
2021/07/12 02:23:37;;;;;;;;;;;;;;;18.42;79.15;101442.06;5116112;28;19924;-72
2021/07/12 02:26:04;;;;;;;;;;;;;;;18.43;79.64;101433.22;5115444;28;19923;-72
2021/07/12 02:28:31;;;;;;;;;;;;;;;18.37;79.17;101433.69;5115926;28;19931;-72
2021/07/12 02:30:58;;;;;;;;;;;;;;;18.38;79.42;101440.66;5115587;28;19924;-72
2021/07/12 02:33:25;;;;;;;;;;;;;;;18.35;79.81;101438.25;5115538;28;19949;-72
2021/07/12 02:35:53;;;;;;;;;;;;;;;18.38;79.75;101433.56;5115564;28;20297;-72
2021/07/12 02:38:21;;;;;;;;;;;;;;;18.45;79.45;101439.22;5115519;28;20273;-72
2021/07/12 02:40:49;;;;;;;;;;;;;;;18.49;78.96;101440.66;5115493;28;19924;-72
2021/07/12 02:43:15;;;;;;;;;;;;;;;18.47;78.71;101443.41;5115501;28;19923;-72
2021/07/12 02:45:44;;;;;;;;;;;;;;;18.57;79.14;101440.88;5115250;28;20328;-72
2021/07/12 02:48:10;;;;;;;;;;;;;;;18.53;78.35;101431.56;5115116;28;19928;-72
2021/07/12 02:50:39;;;;;;;;;;;;;;;18.58;78.47;101437.31;5115508;28;19976;-72
2021/07/12 02:53:09;;;;;;;;;;;;;;;18.63;78.20;101439.59;5115301;28;19931;-72
2021/07/12 02:55:37;;;;;;;;;;;;;;;18.64;77.66;101438.63;5115025;28;19924;-72
2021/07/12 02:58:03;;;;;;;;;;;;;;;18.61;78.19;101437.06;5114913;28;20314;-72
2021/07/12 03:00:30;;;;;;;;;;;;;;;18.49;78.06;101430.94;5115114;28;19928;-72
2021/07/12 03:02:57;;;;;;;;;;;;;;;18.52;79.00;101443.03;5115369;28;19931;-72
2021/07/12 03:05:23;;;;;;;;;;;;;;;18.56;78.76;101439.22;5114942;28;19924;-72
2021/07/12 03:07:55;;;;;;;;;;;;;;;18.69;78.53;101441.72;5115093;28;19923;-72
2021/07/12 03:10:27;;;;;;;;;;;;;;;18.58;78.65;101439.94;5114745;28;20406;-72
2021/07/12 03:12:57;;;;;;;;;;;;;;;18.74;78.37;101444.00;5115186;28;19980;-72
2021/07/12 03:15:26;;;;;;;;;;;;;;;18.88;78.20;101444.63;5115426;28;19923;-72
2021/07/12 03:17:54;;;;;;;;;;;;;;;18.74;78.85;101436.94;5115047;28;19924;-72
2021/07/12 03:20:21;;;;;;;;;;;;;;;18.81;77.30;101445.25;5114449;28;19954;-72
2021/07/12 03:22:50;;;;;;;;;;;;;;;18.82;77.51;101450.38;5114726;28;20392;-72
2021/07/12 03:25:20;;;;;;;;;;;;;;;18.86;77.67;101441.28;5114636;28;19924;-72
2021/07/12 03:27:47;;;;;;;;;;;;;;;18.97;77.02;101445.69;5114472;28;20271;-72
2021/07/12 03:30:15;;;;;;;;;;;;;;;19.09;77.73;101438.63;5114329;28;20408;-73
2021/07/12 03:32:44;;;;;;;;;;;;;;;19.01;77.41;101443.63;5114762;28;19924;-72
2021/07/12 03:35:12;;;;;;;;;;;;;;;19.20;76.50;101443.84;5114078;28;20297;-72
2021/07/12 03:37:38;;;;;;;;;;;;;;;19.08;77.16;101434.28;5114418;28;20305;-72
2021/07/12 03:40:06;;;;;;;;;;;;;;;19.12;75.98;101448.91;5114408;28;20294;-72
2021/07/12 03:42:34;;;;;;;;;;;;;;;18.90;75.94;101445.34;5114193;28;19924;-72
2021/07/12 03:45:02;;;;;;;;;;;;;;;18.88;77.45;101439.38;5114135;28;19927;-72
2021/07/12 03:47:31;;;;;;;;;;;;;;;18.96;77.61;101441.41;5114139;28;20468;-72
2021/07/12 03:50:05;;;;;;;;;;;;;;;18.95;76.88;101437.06;5114118;28;20405;-72
2021/07/12 03:52:34;;;;;;;;;;;;;;;18.88;76.67;101434.09;5114071;28;20346;-72
2021/07/12 03:55:01;;;;;;;;;;;;;;;18.95;78.52;101437.06;5113790;28;19972;-72
2021/07/12 03:57:27;;;;;;;;;;;;;;;19.12;77.87;101435.72;5113971;28;19924;-73
2021/07/12 03:59:54;;;;;;;;;;;;;;;19.14;76.66;101439.91;5113969;28;20310;-73
2021/07/12 04:02:20;;;;;;;;;;;;;;;18.92;77.40;101442.59;5113969;28;19934;-72
2021/07/12 04:04:48;;;;;;;;;;;;;;;18.93;77.22;101436.34;5113777;28;19924;-72
2021/07/12 04:07:15;;;;;;;;;;;;;;;18.82;78.13;101439.00;5113490;28;19924;-72
2021/07/12 04:09:41;;;;;;;;;;;;;;;18.83;77.90;101438.91;5113714;28;19923;-72
2021/07/12 04:12:08;;;;;;;;;;;;;;;18.87;78.05;101442.13;5113810;28;19923;-72
2021/07/12 04:14:35;;;;;;;;;;;;;;;18.85;77.14;101441.38;5113976;28;19924;-72
2021/07/12 04:17:01;;;;;;;;;;;;;;;18.87;77.45;101437.69;5113697;28;19930;-71
2021/07/12 04:19:28;;;;;;;;;;;;;;;18.89;76.97;101433.13;5113546;27;19923;-72
2021/07/12 04:21:56;;;;;;;;;;;;;;;18.92;77.62;101437.31;5113438;28;19924;-72
2021/07/12 04:24:23;;;;;;;;;;;;;;;19.07;77.58;101438.72;5113346;28;19923;-72
2021/07/12 04:26:49;;;;;;;;;;;;;;;19.17;76.94;101444.09;5113732;28;20290;-72
2021/07/12 04:29:16;;;;;;;;;;;;;;;19.20;76.65;101445.66;5113419;28;19924;-72
2021/07/12 04:31:42;;;;;;;;;;;;;;;19.26;77.63;101439.88;5112882;28;19931;-72
2021/07/12 04:34:09;;;;;;;;;;;;;;;19.34;77.13;101453.28;5113226;28;19923;-72
2021/07/12 04:36:36;;;;;;;;;;;;;;;19.15;76.33;101444.22;5113593;28;19931;-72
2021/07/12 04:39:04;;;;;;;;;;;;;;;19.27;76.73;101447.69;5113034;28;20413;-72
2021/07/12 04:41:31;;;;;;;;;;;;;;;19.44;75.60;101445.47;5113232;28;20290;-72
2021/07/12 04:43:57;;;;;;;;;;;;;;;19.42;75.75;101447.38;5113491;28;19924;-72
2021/07/12 04:46:24;;;;;;;;;;;;;;;19.74;74.72;101448.25;5112967;28;19923;-72
2021/07/12 04:48:50;;;;;;;;;;;;;;;19.98;75.05;101448.00;5113195;28;20382;-72
2021/07/12 04:51:17;;;;;;;;;;;;;;;20.07;73.85;101442.94;5112863;28;19931;-72
2021/07/12 04:53:44;;;;;;;;;;;;;;;20.29;73.66;101448.06;5113269;28;19924;-72
2021/07/12 04:56:12;;;;;;;;;;;;;;;20.58;73.44;101450.06;5112762;28;19923;-72
2021/07/12 04:58:43;;;;;;;;;;;;;;;20.80;72.78;101449.00;5113292;28;19923;-72
2021/07/12 05:01:10;;;;;;;;;;;;;;;20.80;72.37;101452.50;5112656;28;20426;-72
2021/07/12 05:03:37;;;;;;;;;;;;;;;20.25;71.57;101451.94;5112840;28;19924;-72
2021/07/12 05:06:04;;;;;;;;;;;;;;;20.27;73.26;101446.50;5112592;28;19938;-72
2021/07/12 05:08:31;;;;;;;;;;;;;;;20.54;71.83;101452.13;5113114;28;19935;-72
2021/07/12 05:10:58;;;;;;;;;;;;;;;20.41;71.61;101448.81;5112898;28;19931;-73
2021/07/12 05:13:27;;;;;;;;;;;;;;;20.42;72.12;101456.63;5113014;28;19947;-72
2021/07/12 05:15:53;;;;;;;;;;;;;;;20.61;71.90;101460.34;5113159;28;19932;-73
2021/07/12 05:18:20;;;;;;;;;;;;;;;20.56;71.66;101455.47;5112847;28;19947;-72
2021/07/12 05:20:46;;;;;;;;;;;;;;;20.32;71.37;101458.38;5112684;28;19924;-72
2021/07/12 05:23:13;;;;;;;;;;;;;;;20.24;72.67;101460.81;5112802;28;19924;-72
2021/07/12 05:25:41;;;;;;;;;;;;;;;19.99;72.72;101457.63;5112599;28;19923;-73
2021/07/12 05:28:08;;;;;;;;;;;;;;;19.74;73.74;101456.19;5112812;28;19963;-72
2021/07/12 05:30:36;;;;;;;;;;;;;;;19.88;73.65;101456.81;5112643;28;19923;-72
2021/07/12 05:33:03;;;;;;;;;;;;;;;19.80;74.10;101458.28;5112762;28;19934;-72
2021/07/12 05:35:29;;;;;;;;;;;;;;;19.92;73.06;101459.09;5112989;28;19924;-72
2021/07/12 05:37:57;;;;;;;;;;;;;;;20.28;72.54;101462.25;5112863;28;19924;-72
2021/07/12 05:40:23;;;;;;;;;;;;;;;20.86;71.28;101451.13;5112582;28;20293;-72
2021/07/12 05:42:50;;;;;;;;;;;;;;;20.77;70.21;101450.13;5112806;28;19938;-72
2021/07/12 05:45:17;;;;;;;;;;;;;;;20.70;70.29;101448.13;5114855;28;19923;-72
2021/07/12 05:47:45;;;;;;;;;;;;;;;20.28;71.18;101453.50;5116723;28;19962;-72
2021/07/12 05:50:14;;;;;;;;;;;;;;;20.66;72.01;101459.00;5116255;28;20144;-72
2021/07/12 05:52:40;;;;;;;;;;;;;;;21.07;69.81;101459.00;5116266;28;19923;-72
2021/07/12 05:55:08;;;;;;;;;;;;;;;20.96;70.59;101456.44;5115815;28;19930;-72
2021/07/12 05:57:35;;;;;;;;;;;;;;;20.85;69.75;101454.75;5116070;28;20409;-72
2021/07/12 06:00:01;;;;;;;;;;;;;;;21.04;69.13;101459.22;5116136;28;20066;-72
2021/07/12 06:02:28;;;;;;;;;;;;;;;21.31;69.77;101459.44;5116275;28;19931;-73
2021/07/12 06:04:56;;;;;;;;;;;;;;;21.21;68.09;101449.81;5115905;28;19931;-72
2021/07/12 06:07:23;;;;;;;;;;;;;;;21.50;69.43;101460.44;5115984;28;19924;-72
2021/07/12 06:09:49;;;;;;;;;;;;;;;21.61;68.36;101455.03;5115811;28;19924;-72
2021/07/12 06:12:16;;;;;;;;;;;;;;;21.56;67.90;101457.28;5115594;28;20370;-72
2021/07/12 06:14:42;;;;;;;;;;;;;;;21.22;71.14;101456.75;5116020;28;19934;-72
2021/07/12 06:17:09;;;;;;;;;;;;;;;21.38;69.88;101465.06;5115556;28;19924;-73
2021/07/12 06:19:35;;;;;;;;;;;;;;;21.05;70.24;101460.94;5115728;28;19923;-72
2021/07/12 06:22:04;;;;;;;;;;;;;;;21.01;70.22;101464.81;5115317;28;20309;-72
2021/07/12 06:24:31;;;;;;;;;;;;;;;20.90;70.83;101473.69;5115559;28;19924;-73
2021/07/12 06:26:57;;;;;;;;;;;;;;;20.76;71.65;101461.69;5115848;28;19928;-72
2021/07/12 06:29:24;;;;;;;;;;;;;;;21.06;71.83;101468.72;5115867;28;19923;-72
2021/07/12 06:31:50;;;;;;;;;;;;;;;21.00;71.37;101460.50;5115436;28;20302;-72
2021/07/12 06:34:17;;;;;;;;;;;;;;;20.90;71.75;101457.81;5115439;28;19924;-72
2021/07/12 06:36:44;;;;;;;;;;;;;;;20.74;72.23;101462.78;5115768;28;20266;-73
2021/07/12 06:39:12;;;;;;;;;;;;;;;20.88;72.17;101462.41;5115102;28;19931;-72
2021/07/12 06:41:38;;;;;;;;;;;;;;;20.83;72.47;101464.59;5115200;28;20361;-72
2021/07/12 06:44:05;;;;;;;;;;;;;;;20.87;72.14;101464.22;5115239;28;19924;-72
2021/07/12 06:46:32;;;;;;;;;;;;;;;20.70;72.93;101482.50;5115006;28;19934;-72
2021/07/12 06:48:58;;;;;;;;;;;;;;;20.69;72.15;101486.13;5115189;28;19924;-72
2021/07/12 06:51:25;;;;;;;;;;;;;;;20.66;72.98;101477.50;5115042;28;19924;-72
2021/07/12 06:53:52;;;;;;;;;;;;;;;21.08;72.21;101477.34;5115370;28;19924;-72
2021/07/12 06:56:20;;;;;;;;;;;;;;;20.89;71.50;101474.66;5114022;28;19928;-72
2021/07/12 06:58:46;;;;;;;;;;;;;;;21.21;70.95;101485.03;5114931;28;19931;-72
2021/07/12 07:01:13;;;;;;;;;;;;;;;20.77;72.20;101484.50;5114703;28;19928;-72
2021/07/12 07:03:39;;;;;;;;;;;;;;;20.91;72.15;101480.66;5115633;28;19923;-72
2021/07/12 07:06:06;;;;;;;;;;;;;;;21.49;71.39;101483.44;5114623;28;19924;-72
2021/07/12 07:08:33;;;;;;;;;;;;;;;21.46;70.55;101486.38;5115132;28;19935;-72
2021/07/12 07:10:59;;;;;;;;;;;;;;;20.91;71.08;101483.31;5114689;28;19923;-72
2021/07/12 07:13:27;;;;;;;;;;;;;;;20.71;72.29;101486.84;5114702;28;19923;-72
2021/07/12 07:15:54;;;;;;;;;;;;;;;21.60;69.80;101474.53;5114709;28;19931;-72
2021/07/12 07:18:20;;;;;;;;;;;;;;;21.61;69.84;101480.69;5114383;28;20385;-72
2021/07/12 07:20:47;;;;;;;;;;;;;;;22.38;66.44;101501.84;5114880;28;19924;-72
2021/07/12 07:23:14;;;;;;;;;;;;;;;22.52;65.14;101484.63;5114656;28;19924;-72
2021/07/12 07:25:40;;;;;;;;;;;;;;;22.20;67.33;101495.59;5114509;28;20405;-72
2021/07/12 07:28:07;;;;;;;;;;;;;;;21.72;68.67;101488.50;5114331;28;19924;-72
2021/07/12 07:30:37;;;;;;;;;;;;;;;21.33;70.42;101499.00;5114783;28;19947;-72
2021/07/12 07:33:04;;;;;;;;;;;;;;;20.60;72.49;101511.53;5114185;28;20378;-71
2021/07/12 07:35:30;;;;;;;;;;;;;;;20.67;73.78;101513.53;5114359;28;19934;-71
2021/07/12 07:37:57;;;;;;;;;;;;;;;20.62;73.60;101515.72;5114577;28;19924;-72
2021/07/12 07:40:24;;;;;;;;;;;;;;;20.39;74.63;101509.72;5114131;28;19931;-72
2021/07/12 07:42:50;;;;;;;;;;;;;;;20.16;74.89;101506.38;5114390;28;20293;-72
2021/07/12 07:45:17;;;;;;;;;;;;;;;20.47;74.68;101519.66;5114082;28;19924;-72
2021/07/12 07:47:46;;;;;;;;;;;;;;;20.34;74.42;101516.38;5114269;28;19924;-72
2021/07/12 07:50:13;;;;;;;;;;;;;;;20.33;74.16;101515.53;5113694;28;19928;-72
2021/07/12 07:52:40;;;;;;;;;;;;;;;20.54;74.19;101519.97;5113696;28;19924;-72
2021/07/12 07:55:08;;;;;;;;;;;;;;;20.43;74.00;101520.91;5113590;28;19923;-72
2021/07/12 07:57:35;;;;;;;;;;;;;;;20.47;75.42;101517.00;5114100;28;19924;-72
2021/07/12 08:00:02;;;;;;;;;;;;;;;20.48;75.26;101534.56;5113740;28;19923;-72
2021/07/12 08:02:28;;;;;;;;;;;;;;;20.56;74.80;101528.66;5113416;28;19924;-72
2021/07/12 08:04:58;;;;;;;;;;;;;;;20.40;75.24;101537.00;5113242;28;20213;-72
2021/07/12 08:07:25;;;;;;;;;;;;;;;20.40;75.93;101531.72;5112662;28;20280;-72
2021/07/12 08:09:51;;;;;;;;;;;;;;;21.28;73.00;101536.47;5113823;28;19930;-73
2021/07/12 08:12:18;;;;;;;;;;;;;;;22.39;68.68;101532.66;5113187;28;19928;-73
2021/07/12 08:14:44;;;;;;;;;;;;;;;21.74;70.27;101532.41;5113448;28;19938;-72
2021/07/12 08:17:11;;;;;;;;;;;;;;;21.82;69.62;101533.53;5113561;28;19923;-72
2021/07/12 08:19:38;;;;;;;;;;;;;;;22.23;70.34;101534.25;5113460;28;19923;-72
2021/07/12 08:22:06;;;;;;;;;;;;;;;21.44;70.23;101532.50;5113329;28;19947;-72
2021/07/12 08:24:32;;;;;;;;;;;;;;;21.74;69.27;101540.34;5113574;28;20309;-72
2021/07/12 08:27:01;;;;;;;;;;;;;;;21.68;71.05;101543.56;5113212;28;19923;-72
2021/07/12 08:29:28;;;;;;;;;;;;;;;21.72;71.17;101541.44;5113184;28;20020;-72
2021/07/12 08:31:54;;;;;;;;;;;;;;;21.37;73.30;101550.69;5113190;28;20385;-72
2021/07/12 08:34:21;;;;;;;;;;;;;;;21.34;73.20;101553.59;5113069;28;19946;-71
2021/07/12 08:36:47;;;;;;;;;;;;;;;21.57;72.70;101553.41;5113082;28;20293;-71
2021/07/12 08:39:15;;;;;;;;;;;;;;;21.68;72.03;101558.59;5113091;28;19931;-73
2021/07/12 08:41:42;;;;;;;;;;;;;;;22.41;69.19;101558.22;5113273;28;19931;-73
2021/07/12 08:44:08;;;;;;;;;;;;;;;24.19;64.83;101557.84;5112978;28;19924;-71
2021/07/12 08:46:35;;;;;;;;;;;;;;;22.95;67.21;101561.97;5112960;28;19931;-72
2021/07/12 08:49:02;;;;;;;;;;;;;;;22.42;68.23;101567.81;5112626;28;19924;-72
2021/07/12 08:51:28;;;;;;;;;;;;;;;23.44;65.52;101562.59;5112904;28;19931;-72
2021/07/12 08:53:56;;;;;;;;;;;;;;;23.48;65.42;101562.16;5113167;28;19962;-72
2021/07/12 08:56:24;;;;;;;;;;;;;;;24.71;62.42;101573.03;5112323;28;19924;-72
2021/07/12 08:58:51;;;;;;;;;;;;;;;23.73;63.64;101569.56;5113010;28;19930;-72
2021/07/12 09:01:17;;;;;;;;;;;;;;;25.42;58.82;101571.91;5112457;28;20271;-72
2021/07/12 09:03:46;;;;;;;;;;;;;;;26.73;56.05;101561.31;5113024;28;19927;-72
2021/07/12 09:06:13;;;;;;;;;;;;;;;26.47;55.00;101564.19;5112481;28;20382;-72
2021/07/12 09:08:42;;;;;;;;;;;;;;;27.48;52.99;101568.03;5112935;28;19930;-73
2021/07/12 09:11:09;;;;;;;;;;;;;;;28.13;50.70;101567.59;5112404;28;20023;-72
2021/07/12 09:13:45;;;;;;;;;;;;;;;27.40;52.05;101570.75;5112725;28;19923;-72
2021/07/12 09:16:28;;;;;;;;;;;;;;;25.63;55.90;101572.28;5112730;28;19965;-72
2021/07/12 09:19:03;;;;;;;;;;;;;;;27.05;53.44;101576.41;5115044;28;19928;-72
2021/07/12 09:21:32;;;;;;;;;;;;;;;26.58;54.05;101573.69;5117177;28;19931;-72
2021/07/12 09:24:11;;;;;;;;;;;;;;;26.19;54.82;101572.53;5116685;28;19931;-71
2021/07/12 09:26:40;;;;;;;;;;;;;;;26.43;55.16;101573.50;5117243;28;19977;-72
2021/07/12 09:29:08;;;;;;;;;;;;;;;26.22;54.71;101582.03;5116761;28;19928;-72
2021/07/12 09:31:36;;;;;;;;;;;;;;;27.01;52.67;101583.06;5116606;28;20381;-72
2021/07/12 09:34:03;;;;;;;;;;;;;;;26.11;54.51;101577.88;5116415;28;19924;-72
2021/07/12 09:36:31;;;;;;;;;;;;;;;27.22;52.41;101579.03;5117197;28;19931;-72
2021/07/12 09:38:58;;;;;;;;;;;;;;;28.91;49.06;101588.78;5116579;28;19931;-72
2021/07/12 09:41:28;;;;;;;;;;;;;;;26.43;52.82;101587.66;5116387;28;19928;-72
2021/07/12 09:44:00;;;;;;;;;;;;;;;26.12;54.40;101590.19;5116340;28;19928;-72
2021/07/12 09:46:31;;;;;;;;;;;;;;;27.56;51.11;101587.50;5116414;28;19924;-72
2021/07/12 09:49:09;;;;;;;;;;;;;;;27.16;51.93;101585.88;5116605;28;19924;-72
2021/07/12 09:51:37;;;;;;;;;;;;;;;26.42;53.23;101588.69;5116406;28;19924;-72
2021/07/12 09:54:18;;;;;;;;;;;;;;;25.79;54.20;101591.94;5116211;28;19989;-72
2021/07/12 09:56:44;;;;;;;;;;;;;;;25.57;54.52;101590.75;5116168;28;19927;-72
2021/07/12 09:59:12;;;;;;;;;;;;;;;26.17;52.09;101587.84;5116261;28;19924;-72
2021/07/12 10:01:41;;;;;;;;;;;;;;;25.61;53.21;101590.28;5116196;28;19972;-72
2021/07/12 10:04:08;;;;;;;;;;;;;;;25.84;52.77;101594.97;5116316;28;20014;-72
2021/07/12 10:06:35;;;;;;;;;;;;;;;27.24;49.40;101603.72;5116445;28;19927;-72
2021/07/12 10:09:02;;;;;;;;;;;;;;;26.99;49.86;101601.09;5116215;28;19924;-72
2021/07/12 10:11:29;;;;;;;;;;;;;;;25.96;52.50;101601.69;5116024;28;19935;-72
2021/07/12 10:13:56;;;;;;;;;;;;;;;26.22;52.15;101600.69;5116286;28;19947;-72
2021/07/12 10:16:23;;;;;;;;;;;;;;;28.33;47.94;101604.53;5115828;28;19967;-72
2021/07/12 10:18:51;;;;;;;;;;;;;;;26.55;50.57;101598.88;5115966;28;19924;-72
2021/07/12 10:21:18;;;;;;;;;;;;;;;27.68;49.48;101595.16;5115667;28;19924;-72
2021/07/12 10:23:45;;;;;;;;;;;;;;;27.07;49.71;101598.41;5115892;28;19938;-72
2021/07/12 10:26:12;;;;;;;;;;;;;;;26.91;50.92;101604.63;5115870;28;19931;-72
2021/07/12 10:28:39;;;;;;;;;;;;;;;27.61;48.50;101611.03;5115924;28;19924;-72
2021/07/12 10:31:17;;;;;;;;;;;;;;;27.12;49.81;101601.38;5114465;28;19924;-72
2021/07/12 10:33:44;;;;;;;;;;;;;;;28.08;48.00;101598.56;5115975;28;19924;-72
2021/07/12 10:36:12;;;;;;;;;;;;;;;26.03;49.46;101600.03;5115710;28;19924;-72
2021/07/12 10:38:40;;;;;;;;;;;;;;;26.76;49.40;101602.84;5115477;28;19924;-72
2021/07/12 10:41:17;;;;;;;;;;;;;;;26.35;50.09;101598.34;5115244;28;20006;-72
2021/07/12 10:43:48;;;;;;;;;;;;;;;28.19;46.74;101592.81;5115748;28;20323;-72
2021/07/12 10:46:36;;;;;;;;;;;;;;;28.17;46.17;101606.34;5115529;28;20069;-72
2021/07/12 10:49:04;;;;;;;;;;;;;;;27.70;45.69;101609.19;5115126;28;19931;-72
2021/07/12 10:51:35;;;;;;;;;;;;;;;28.05;45.00;101601.59;5115341;28;20374;-72
2021/07/12 10:54:03;;;;;;;;;;;;;;;27.62;45.56;101609.19;5115380;28;19924;-72
2021/07/12 10:56:48;;;;;;;;;;;;;;;28.64;42.76;101607.13;5114875;28;19938;-72
2021/07/12 10:59:24;;;;;;;;;;;;;;;26.55;46.45;101612.22;5115093;28;19924;-72
2021/07/12 11:01:51;;;;;;;;;;;;;;;27.80;45.38;101605.25;5115378;28;19977;-71
2021/07/12 11:04:37;;;;;;;;;;;;;;;27.51;44.27;101610.44;5114763;28;19930;-72
2021/07/12 11:07:06;;;;;;;;;;;;;;;27.46;45.30;101597.63;5114969;28;19950;-72
2021/07/12 11:10:05;;;;;;;;;;;;;;;27.22;46.23;101603.06;5115334;28;19924;-72
2021/07/12 11:12:36;;;;;;;;;;;;;;;27.23;44.20;101610.06;5115279;28;19924;-72
2021/07/12 11:15:10;;;;;;;;;;;;;;;29.13;42.06;101608.44;5114628;28;19924;-70
2021/07/12 11:17:50;;;;;;;;;;;;;;;30.03;40.13;101601.84;5114620;28;20285;-71
2021/07/12 11:20:17;;;;;;;;;;;;;;;29.43;40.75;101623.47;5114883;28;19924;-71
2021/07/12 11:22:53;;;;;;;;;;;;;;;28.25;42.12;101613.47;5115074;28;19924;-71
2021/07/12 11:25:38;;;;;;;;;;;;;;;27.60;43.57;101612.06;5114402;28;19923;-71
2021/07/12 11:28:11;;;;;;;;;;;;;;;27.55;44.28;101617.94;5114252;28;19928;-71
2021/07/12 11:30:38;;;;;;;;;;;;;;;29.61;40.11;101628.44;5115192;28;19923;-71
2021/07/12 11:33:05;;;;;;;;;;;;;;;30.10;39.51;101619.66;5114321;28;19928;-72
2021/07/12 11:35:32;;;;;;;;;;;;;;;31.82;36.51;101624.41;5114634;28;19930;-72
2021/07/12 11:38:01;;;;;;;;;;;;;;;28.40;41.71;101619.69;5114412;28;19923;-72
2021/07/12 11:40:27;;;;;;;;;;;;;;;29.70;39.60;101629.19;5114558;28;19924;-72
2021/07/12 11:42:54;;;;;;;;;;;;;;;29.47;40.38;101622.09;5114449;28;19924;-72
2021/07/12 11:45:23;;;;;;;;;;;;;;;29.25;40.39;101623.03;5114210;28;19924;-71
2021/07/12 11:47:53;;;;;;;;;;;;;;;29.32;39.54;101626.66;5114368;28;20026;-72
2021/07/12 11:50:20;;;;;;;;;;;;;;;29.32;40.55;101625.81;5114029;28;20026;-72
2021/07/12 11:52:47;;;;;;;;;;;;;;;30.81;38.45;101616.13;5113980;28;19931;-72
2021/07/12 11:55:17;;;;;;;;;;;;;;;30.43;37.29;101623.69;5113934;28;19923;-72
2021/07/12 11:57:45;;;;;;;;;;;;;;;29.30;40.21;101631.34;5114260;28;19924;-72
2021/07/12 12:00:13;;;;;;;;;;;;;;;30.40;37.46;101622.22;5113950;28;19930;-72
2021/07/12 12:02:40;;;;;;;;;;;;;;;28.20;42.37;101635.41;5113847;28;19924;-72
2021/07/12 12:05:08;;;;;;;;;;;;;;;28.35;42.12;101624.75;5113512;28;19935;-71
2021/07/12 12:07:36;;;;;;;;;;;;;;;28.23;41.10;101629.72;5113731;28;19932;-71
2021/07/12 12:10:05;;;;;;;;;;;;;;;29.53;39.72;101625.88;5113570;28;20401;-72
2021/07/12 12:12:35;;;;;;;;;;;;;;;27.84;42.15;101618.31;5113932;28;19931;-72
2021/07/12 12:15:03;;;;;;;;;;;;;;;27.97;43.80;101623.88;5113634;28;19970;-72
2021/07/12 12:17:30;;;;;;;;;;;;;;;29.79;40.65;101636.09;5113646;28;19930;-71
2021/07/12 12:20:18;;;;;;;;;;;;;;;28.75;41.65;101630.78;5113865;28;19935;-72
2021/07/12 12:22:55;;;;;;;;;;;;;;;29.33;40.03;101638.19;5107367;28;19930;-71
2021/07/12 12:25:22;;;;;;;;;;;;;;;27.70;42.83;101647.44;5113250;28;19924;-72
2021/07/12 12:27:50;;;;;;;;;;;;;;;28.72;40.51;101630.31;5113688;28;19923;-72
2021/07/12 12:30:17;;;;;;;;;;;;;;;28.54;40.60;101634.19;5113435;28;19976;-72
2021/07/12 12:32:43;;;;;;;;;;;;;;;27.91;42.84;101638.81;5113696;28;19989;-72
2021/07/12 12:35:11;;;;;;;;;;;;;;;27.25;44.40;101634.78;5113397;28;19927;-72
2021/07/12 12:37:38;;;;;;;;;;;;;;;28.33;43.76;101634.81;5113102;28;19924;-72
2021/07/12 12:40:09;;;;;;;;;;;;;;;30.58;38.18;101635.19;5113353;28;19934;-72
2021/07/12 12:42:35;;;;;;;;;;;;;;;29.04;40.12;101645.19;5113527;28;19924;-72